Time;durP1;ratioP1;P1;durP2;ratioP2;P2;SDS_P1;SDS_P2;PMS_P1;PMS_P2;Temp;Humidity;BMP_temperature;BMP_pressure;BME280_temperature;BME280_humidity;BME280_pressure;Samples;Min_cycle;Max_cycle;Signal;HPM_P1;HPM_P2
2024/03/06 00:01:50;;;;;;;24.45;5.63;;;;;;;;;;7411531;19;19926;-80
2024/03/06 00:04:37;;;;;;;18.10;6.07;;;;;;;;;;7411230;19;19930;-80
2024/03/06 00:07:26;;;;;;;14.63;5.25;;;;;;;;;;7409830;19;20263;-81
2024/03/06 00:10:13;;;;;;;19.30;6.18;;;;;;;;;;7412470;19;19915;-80
2024/03/06 00:12:57;;;;;;;29.90;6.57;;;;;;;;;;7412407;19;20009;-80
2024/03/06 00:15:43;;;;;;;33.22;6.55;;;;;;;;;;7410150;19;19934;-80
2024/03/06 00:18:28;;;;;;;19.58;6.28;;;;;;;;;;7410246;19;20274;-80
2024/03/06 00:21:12;;;;;;;25.88;6.63;;;;;;;;;;7409914;19;19917;-81
2024/03/06 00:24:01;;;;;;;24.75;6.88;;;;;;;;;;7412654;19;19915;-80
2024/03/06 00:26:53;;;;;;;15.60;5.00;;;;;;;;;;7413214;19;19919;-80
2024/03/06 00:29:39;;;;;;;32.05;6.32;;;;;;;;;;7414624;19;19926;-80
2024/03/06 00:32:24;;;;;;;24.00;6.97;;;;;;;;;;7413582;19;19918;-80
2024/03/06 00:35:12;;;;;;;16.13;6.90;;;;;;;;;;7415988;19;20337;-80
2024/03/06 00:37:56;;;;;;;16.85;6.63;;;;;;;;;;7416727;19;19915;-80
2024/03/06 00:40:40;;;;;;;17.02;5.72;;;;;;;;;;7416855;19;19907;-80
2024/03/06 00:43:27;;;;;;;20.80;5.90;;;;;;;;;;7416663;19;19922;-80
2024/03/06 00:46:11;;;;;;;14.55;5.53;;;;;;;;;;7416237;19;20389;-80
2024/03/06 00:49:00;;;;;;;15.82;5.75;;;;;;;;;;7417582;19;19918;-80
2024/03/06 00:51:44;;;;;;;24.63;5.68;;;;;;;;;;7415865;19;20301;-80
2024/03/06 00:54:28;;;;;;;22.23;5.75;;;;;;;;;;7413591;19;19918;-80
2024/03/06 00:57:17;;;;;;;24.05;5.45;;;;;;;;;;7412294;19;20266;-80
2024/03/06 01:00:10;;;;;;;17.35;5.75;;;;;;;;;;7414393;19;19930;-80
2024/03/06 01:02:54;;;;;;;27.33;5.93;;;;;;;;;;7415173;19;19943;-80
2024/03/06 01:05:41;;;;;;;27.38;6.03;;;;;;;;;;7414580;19;19907;-80
2024/03/06 01:08:25;;;;;;;19.25;5.63;;;;;;;;;;7413823;19;19945;-80
2024/03/06 01:11:15;;;;;;;19.60;5.07;;;;;;;;;;7413497;19;19917;-80
2024/03/06 01:14:03;;;;;;;27.25;6.63;;;;;;;;;;7413908;19;19981;-80
2024/03/06 01:16:52;;;;;;;20.83;5.15;;;;;;;;;;7412510;19;19966;-80
2024/03/06 01:19:39;;;;;;;45.42;6.30;;;;;;;;;;7414941;19;19919;-80
2024/03/06 01:22:28;;;;;;;33.83;4.72;;;;;;;;;;7415174;19;19919;-80
2024/03/06 01:25:12;;;;;;;30.25;5.80;;;;;;;;;;7411912;19;20388;-80
2024/03/06 01:27:57;;;;;;;28.98;5.72;;;;;;;;;;7416863;19;19914;-80
2024/03/06 01:30:41;;;;;;;29.58;5.45;;;;;;;;;;7419050;19;19910;-80
2024/03/06 01:33:30;;;;;;;31.25;5.57;;;;;;;;;;7420207;19;19918;-80
2024/03/06 01:36:14;;;;;;;51.28;6.32;;;;;;;;;;7421339;19;19943;-80
2024/03/06 01:39:03;;;;;;;42.10;7.07;;;;;;;;;;7423648;19;19918;-80
2024/03/06 01:41:51;;;;;;;44.90;5.80;;;;;;;;;;7420811;19;19926;-80
2024/03/06 01:44:35;;;;;;;37.58;6.05;;;;;;;;;;7420179;19;19923;-80
2024/03/06 01:47:19;;;;;;;58.60;6.85;;;;;;;;;;7417463;19;19942;-80
2024/03/06 01:50:09;;;;;;;58.03;6.10;;;;;;;;;;7416584;19;19915;-80
2024/03/06 01:52:56;;;;;;;51.00;6.43;;;;;;;;;;7415229;19;20006;-80
2024/03/06 01:55:43;;;;;;;35.22;5.90;;;;;;;;;;7414018;19;19919;-80
2024/03/06 01:58:30;;;;;;;42.22;6.03;;;;;;;;;;7413129;19;19918;-80
2024/03/06 02:01:19;;;;;;;48.03;6.10;;;;;;;;;;7412995;19;19914;-80
2024/03/06 02:04:03;;;;;;;36.15;6.13;;;;;;;;;;7414974;19;19918;-80
2024/03/06 02:06:51;;;;;;;54.65;6.20;;;;;;;;;;7414439;19;20247;-80
2024/03/06 02:09:40;;;;;;;25.15;5.28;;;;;;;;;;7415514;19;20261;-81
2024/03/06 02:12:27;;;;;;;25.38;4.47;;;;;;;;;;7414536;19;20103;-80
2024/03/06 02:15:12;;;;;;;31.58;4.95;;;;;;;;;;7409998;19;19922;-80
2024/03/06 02:18:01;;;;;;;31.17;5.47;;;;;;;;;;7413835;19;19911;-80
2024/03/06 02:20:50;;;;;;;17.15;4.60;;;;;;;;;;7416507;19;19919;-81
2024/03/06 02:23:36;;;;;;;31.83;4.65;;;;;;;;;;7413239;19;19907;-81
2024/03/06 02:26:24;;;;;;;21.42;4.78;;;;;;;;;;7413642;19;19911;-81
2024/03/06 02:29:12;;;;;;;25.38;5.57;;;;;;;;;;7412499;19;19914;-80
2024/03/06 02:31:56;;;;;;;15.25;4.65;;;;;;;;;;7414076;19;19921;-80
2024/03/06 02:34:43;;;;;;;22.05;4.65;;;;;;;;;;7409702;19;20010;-80
2024/03/06 02:37:33;;;;;;;14.68;4.38;;;;;;;;;;7412247;19;19922;-80
2024/03/06 02:40:22;;;;;;;19.20;4.90;;;;;;;;;;7413679;19;20205;-80
2024/03/06 02:43:11;;;;;;;21.45;4.63;;;;;;;;;;7413635;19;19915;-80
2024/03/06 02:45:58;;;;;;;15.73;4.47;;;;;;;;;;7412167;19;19929;-80
2024/03/06 02:48:42;;;;;;;20.25;3.97;;;;;;;;;;7417043;19;19919;-80
2024/03/06 02:51:31;;;;;;;34.08;5.05;;;;;;;;;;7417944;19;19911;-80
2024/03/06 02:54:18;;;;;;;17.05;5.15;;;;;;;;;;7413657;19;19903;-80
2024/03/06 02:57:04;;;;;;;28.98;4.13;;;;;;;;;;7412133;19;19915;-80
2024/03/06 02:59:52;;;;;;;46.38;6.40;;;;;;;;;;7410715;19;19918;-80
2024/03/06 03:02:36;;;;;;;40.38;5.35;;;;;;;;;;7417077;19;19915;-80
2024/03/06 03:05:23;;;;;;;14.70;4.32;;;;;;;;;;7416443;19;20374;-80
2024/03/06 03:08:10;;;;;;;33.92;4.78;;;;;;;;;;7418087;19;19922;-80
2024/03/06 03:11:02;;;;;;;46.92;4.97;;;;;;;;;;7417829;19;19907;-81
2024/03/06 03:13:49;;;;;;;18.98;4.10;;;;;;;;;;7418429;19;19914;-81
2024/03/06 03:16:33;;;;;;;35.15;5.05;;;;;;;;;;7417217;19;19945;-81
2024/03/06 03:19:20;;;;;;;32.40;5.82;;;;;;;;;;7418453;19;19910;-81
2024/03/06 03:22:05;;;;;;;30.63;5.35;;;;;;;;;;7414548;19;19914;-81
2024/03/06 03:24:52;;;;;;;9.35;3.92;;;;;;;;;;7418430;19;19926;-80
2024/03/06 03:27:39;;;;;;;27.92;5.07;;;;;;;;;;7415992;19;19926;-81
2024/03/06 03:30:26;;;;;;;21.73;4.50;;;;;;;;;;7421156;19;19917;-81
2024/03/06 03:33:13;;;;;;;17.73;4.45;;;;;;;;;;7417048;19;19914;-81
2024/03/06 03:35:57;;;;;;;25.80;5.20;;;;;;;;;;7417249;19;19978;-81
2024/03/06 03:38:46;;;;;;;22.10;4.03;;;;;;;;;;7420213;19;19911;-80
2024/03/06 03:41:30;;;;;;;22.65;4.90;;;;;;;;;;7416465;19;20337;-80
2024/03/06 03:44:21;;;;;;;26.90;4.72;;;;;;;;;;7417663;19;19919;-80
2024/03/06 03:47:09;;;;;;;24.55;4.63;;;;;;;;;;7416390;19;19927;-80
2024/03/06 03:49:54;;;;;;;10.68;4.90;;;;;;;;;;7419479;19;19953;-80
2024/03/06 03:52:41;;;;;;;17.98;4.63;;;;;;;;;;7419408;19;19919;-80
2024/03/06 03:55:26;;;;;;;12.73;4.28;;;;;;;;;;7415941;19;19926;-80
2024/03/06 03:58:12;;;;;;;12.70;3.97;;;;;;;;;;7417008;19;20427;-80
2024/03/06 04:00:59;;;;;;;12.00;4.10;;;;;;;;;;7421068;19;19915;-80
2024/03/06 04:03:45;;;;;;;12.35;4.65;;;;;;;;;;7420113;19;19925;-80
2024/03/06 04:06:30;;;;;;;8.70;4.25;;;;;;;;;;7417354;19;19930;-81
2024/03/06 04:09:19;;;;;;;6.72;3.42;;;;;;;;;;7419010;19;20272;-81
2024/03/06 04:12:06;;;;;;;8.43;3.53;;;;;;;;;;7419983;19;19914;-80
2024/03/06 04:14:53;;;;;;;7.53;3.88;;;;;;;;;;7417919;19;19978;-80
2024/03/06 04:17:45;;;;;;;6.88;3.15;;;;;;;;;;7422990;19;19914;-80
2024/03/06 04:20:29;;;;;;;8.68;4.43;;;;;;;;;;7425968;19;19939;-80
2024/03/06 04:23:15;;;;;;;7.32;3.17;;;;;;;;;;7426706;19;19922;-80
2024/03/06 04:26:03;;;;;;;9.20;4.00;;;;;;;;;;7424079;19;19925;-80
2024/03/06 04:28:47;;;;;;;8.27;4.38;;;;;;;;;;7426861;19;19922;-80
2024/03/06 04:31:33;;;;;;;9.02;4.07;;;;;;;;;;7427161;19;19919;-80
2024/03/06 04:34:20;;;;;;;10.23;4.72;;;;;;;;;;7414959;19;19914;-80
2024/03/06 04:37:05;;;;;;;8.30;4.22;;;;;;;;;;7411042;19;19937;-80
2024/03/06 04:39:51;;;;;;;10.75;5.03;;;;;;;;;;7416121;19;20251;-81
2024/03/06 04:42:40;;;;;;;9.27;4.80;;;;;;;;;;7415537;19;19926;-80
2024/03/06 04:45:28;;;;;;;9.52;5.18;;;;;;;;;;7413593;19;20261;-80
2024/03/06 04:48:15;;;;;;;10.60;5.10;;;;;;;;;;7413811;19;19919;-80
2024/03/06 04:51:04;;;;;;;13.88;4.32;;;;;;;;;;7415167;19;19919;-80
2024/03/06 04:53:48;;;;;;;12.15;4.70;;;;;;;;;;7417316;19;20393;-80
2024/03/06 04:56:32;;;;;;;13.68;4.53;;;;;;;;;;7413085;19;20479;-80
2024/03/06 04:59:20;;;;;;;8.68;3.60;;;;;;;;;;7415680;19;19970;-80
2024/03/06 05:02:08;;;;;;;10.90;4.38;;;;;;;;;;7414224;19;19926;-80
2024/03/06 05:04:55;;;;;;;20.98;5.50;;;;;;;;;;7415526;19;19923;-80
2024/03/06 05:07:45;;;;;;;11.10;4.10;;;;;;;;;;7414535;19;19918;-80
2024/03/06 05:10:29;;;;;;;9.35;4.30;;;;;;;;;;7416110;19;20259;-80
2024/03/06 05:13:13;;;;;;;11.65;4.75;;;;;;;;;;7416554;19;19952;-80
2024/03/06 05:16:02;;;;;;;10.43;4.32;;;;;;;;;;7415183;19;19917;-80
2024/03/06 05:18:49;;;;;;;17.17;4.45;;;;;;;;;;7413718;19;19922;-80
2024/03/06 05:21:35;;;;;;;14.00;5.68;;;;;;;;;;7412040;19;19926;-80
2024/03/06 05:24:24;;;;;;;19.13;4.40;;;;;;;;;;7413670;19;19922;-80
2024/03/06 05:27:13;;;;;;;10.43;4.43;;;;;;;;;;7410352;19;19914;-80
2024/03/06 05:29:59;;;;;;;9.70;4.43;;;;;;;;;;7415065;19;19907;-80
2024/03/06 05:32:44;;;;;;;18.85;5.15;;;;;;;;;;7413420;19;19917;-79
2024/03/06 05:35:29;;;;;;;11.25;4.45;;;;;;;;;;7414120;19;19922;-79
2024/03/06 05:38:16;;;;;;;11.52;3.95;;;;;;;;;;7411525;19;19918;-79
2024/03/06 05:41:05;;;;;;;14.05;4.90;;;;;;;;;;7414095;19;19923;-79
2024/03/06 05:43:52;;;;;;;8.85;4.10;;;;;;;;;;7414687;19;19914;-79
2024/03/06 05:46:38;;;;;;;10.93;4.53;;;;;;;;;;7413410;19;19915;-79
2024/03/06 05:49:25;;;;;;;11.07;4.15;;;;;;;;;;7414911;19;20323;-79
2024/03/06 05:52:10;;;;;;;14.05;5.05;;;;;;;;;;7413677;19;19918;-79
2024/03/06 05:54:54;;;;;;;17.70;5.28;;;;;;;;;;7413310;19;19930;-79
2024/03/06 05:57:45;;;;;;;11.00;5.35;;;;;;;;;;7411968;19;19911;-79
2024/03/06 06:00:31;;;;;;;12.43;5.35;;;;;;;;;;7413946;19;20373;-79
2024/03/06 06:03:16;;;;;;;10.50;4.80;;;;;;;;;;7414710;19;19923;-79
2024/03/06 06:06:05;;;;;;;14.95;4.45;;;;;;;;;;7413823;19;19918;-79
2024/03/06 06:08:50;;;;;;;11.70;4.68;;;;;;;;;;7409186;19;19934;-80
2024/03/06 06:11:34;;;;;;;12.48;4.72;;;;;;;;;;7412682;19;20009;-80
2024/03/06 06:14:21;;;;;;;13.75;4.93;;;;;;;;;;7407536;19;19918;-79
2024/03/06 06:17:08;;;;;;;10.35;4.80;;;;;;;;;;7403195;19;19919;-80
2024/03/06 06:19:52;;;;;;;10.32;4.35;;;;;;;;;;7411768;19;19923;-80
2024/03/06 06:22:41;;;;;;;14.85;4.65;;;;;;;;;;7408325;19;19922;-80
2024/03/06 06:25:28;;;;;;;14.90;5.47;;;;;;;;;;7409489;19;20337;-80
2024/03/06 06:28:12;;;;;;;10.07;4.35;;;;;;;;;;7409312;19;19918;-81
2024/03/06 06:31:02;;;;;;;14.05;5.00;;;;;;;;;;7403806;19;20257;-80
2024/03/06 06:33:47;;;;;;;13.27;5.68;;;;;;;;;;7409444;19;19938;-80
2024/03/06 06:36:33;;;;;;;12.27;5.65;;;;;;;;;;7407144;19;19930;-80
2024/03/06 06:39:20;;;;;;;13.73;4.05;;;;;;;;;;7410041;19;19927;-80
2024/03/06 06:42:04;;;;;;;11.38;4.82;;;;;;;;;;7409362;19;20346;-81
2024/03/06 06:44:51;;;;;;;11.45;4.43;;;;;;;;;;7409707;19;20222;-80
2024/03/06 06:47:39;;;;;;;11.32;4.75;;;;;;;;;;7409398;19;19990;-82
2024/03/06 06:50:27;;;;;;;12.40;5.20;;;;;;;;;;7411926;19;19922;-82
2024/03/06 06:53:12;;;;;;;11.07;5.35;;;;;;;;;;7411689;19;20326;-82
2024/03/06 06:55:56;;;;;;;13.75;5.03;;;;;;;;;;7409553;19;19954;-81
2024/03/06 06:58:43;;;;;;;9.90;4.78;;;;;;;;;;7410990;19;19915;-81
2024/03/06 07:01:30;;;;;;;10.40;3.88;;;;;;;;;;7409736;19;19911;-81
2024/03/06 07:04:20;;;;;;;9.48;3.70;;;;;;;;;;7411406;19;19979;-80
2024/03/06 07:07:06;;;;;;;9.73;4.28;;;;;;;;;;7401227;19;19918;-81
2024/03/06 07:09:51;;;;;;;10.18;4.53;;;;;;;;;;7410359;19;19919;-80
2024/03/06 07:12:38;;;;;;;10.77;4.38;;;;;;;;;;7410978;19;19975;-80
2024/03/06 07:15:22;;;;;;;10.05;4.25;;;;;;;;;;7411904;19;19920;-80
2024/03/06 07:18:08;;;;;;;10.23;4.55;;;;;;;;;;7410179;19;19994;-79
2024/03/06 07:20:57;;;;;;;10.48;4.50;;;;;;;;;;7414639;19;19910;-80
2024/03/06 07:23:41;;;;;;;11.48;4.35;;;;;;;;;;7407441;19;20042;-80
2024/03/06 07:26:29;;;;;;;11.52;4.60;;;;;;;;;;7412556;19;19914;-80
2024/03/06 07:29:15;;;;;;;10.23;4.97;;;;;;;;;;7412219;19;19998;-80
2024/03/06 07:32:05;;;;;;;11.50;4.68;;;;;;;;;;7412916;19;19910;-80
2024/03/06 07:34:49;;;;;;;9.88;4.30;;;;;;;;;;7410605;19;20261;-80
2024/03/06 07:37:36;;;;;;;10.35;5.15;;;;;;;;;;7409758;19;19982;-80
2024/03/06 07:40:22;;;;;;;10.20;4.50;;;;;;;;;;7411914;19;19918;-80
2024/03/06 07:43:11;;;;;;;12.40;5.07;;;;;;;;;;7408453;19;20314;-80
2024/03/06 07:45:55;;;;;;;10.70;5.47;;;;;;;;;;7410208;19;19922;-80
2024/03/06 07:48:44;;;;;;;11.10;5.40;;;;;;;;;;7411014;19;19923;-80
2024/03/06 07:51:31;;;;;;;13.35;5.28;;;;;;;;;;7417544;19;20011;-80
2024/03/06 07:54:22;;;;;;;13.10;5.32;;;;;;;;;;7416840;19;19919;-80
2024/03/06 07:57:09;;;;;;;11.73;5.53;;;;;;;;;;7417984;19;19915;-80
2024/03/06 07:59:56;;;;;;;11.52;5.25;;;;;;;;;;7420232;19;19911;-80
2024/03/06 08:02:42;;;;;;;12.07;5.50;;;;;;;;;;7413526;19;20372;-81
2024/03/06 08:05:33;;;;;;;11.20;5.32;;;;;;;;;;7416022;19;19926;-81
2024/03/06 08:08:24;;;;;;;11.77;5.63;;;;;;;;;;7417255;19;19914;-81
2024/03/06 08:11:13;;;;;;;13.27;5.25;;;;;;;;;;7417643;19;19911;-80
2024/03/06 08:14:01;;;;;;;11.93;5.53;;;;;;;;;;7414136;19;19937;-80
2024/03/06 08:16:48;;;;;;;9.73;4.45;;;;;;;;;;7415999;19;19919;-80
2024/03/06 08:19:35;;;;;;;10.50;5.13;;;;;;;;;;7418637;19;19966;-80
2024/03/06 08:22:22;;;;;;;12.70;5.30;;;;;;;;;;7416207;19;19978;-80
2024/03/06 08:25:09;;;;;;;11.45;5.68;;;;;;;;;;7418074;19;19922;-80
2024/03/06 08:28:03;;;;;;;9.00;5.28;;;;;;;;;;7418154;19;19914;-80
2024/03/06 08:30:49;;;;;;;14.13;6.07;;;;;;;;;;7416375;19;19923;-80
2024/03/06 08:33:34;;;;;;;10.95;5.25;;;;;;;;;;7417356;19;19916;-80
2024/03/06 08:36:24;;;;;;;12.13;5.95;;;;;;;;;;7420805;19;19923;-80
2024/03/06 08:39:12;;;;;;;10.38;6.05;;;;;;;;;;7416035;19;19950;-80
2024/03/06 08:41:57;;;;;;;14.20;7.32;;;;;;;;;;7415522;19;19929;-81
2024/03/06 08:44:47;;;;;;;12.77;6.60;;;;;;;;;;7414495;19;19923;-79
2024/03/06 08:47:33;;;;;;;14.68;6.82;;;;;;;;;;7409893;19;19914;-79
2024/03/06 08:50:20;;;;;;;13.93;6.95;;;;;;;;;;7411697;19;19926;-79
2024/03/06 08:53:04;;;;;;;14.90;6.72;;;;;;;;;;7408274;19;19922;-80
2024/03/06 08:55:51;;;;;;;14.75;7.15;;;;;;;;;;7416153;19;19915;-80
2024/03/06 08:58:36;;;;;;;13.90;5.78;;;;;;;;;;7416005;19;19918;-80
2024/03/06 09:01:26;;;;;;;14.15;6.47;;;;;;;;;;7415827;19;19915;-80
2024/03/06 09:04:10;;;;;;;14.05;6.43;;;;;;;;;;7412173;19;20372;-80
2024/03/06 09:06:56;;;;;;;13.45;6.60;;;;;;;;;;7415284;19;19926;-79
2024/03/06 09:09:43;;;;;;;13.75;6.85;;;;;;;;;;7413877;19;19946;-80
2024/03/06 09:12:32;;;;;;;12.45;6.50;;;;;;;;;;7414619;19;19914;-80
2024/03/06 09:15:21;;;;;;;12.50;6.15;;;;;;;;;;7414586;19;19907;-80
2024/03/06 09:18:08;;;;;;;14.57;7.35;;;;;;;;;;7413382;19;19915;-80
2024/03/06 09:20:53;;;;;;;12.85;7.05;;;;;;;;;;7410862;19;19939;-80
2024/03/06 09:23:40;;;;;;;14.95;7.97;;;;;;;;;;7409989;19;19918;-79
2024/03/06 09:26:24;;;;;;;15.50;8.02;;;;;;;;;;7414661;19;19937;-80
2024/03/06 09:29:09;;;;;;;17.90;8.63;;;;;;;;;;7415065;19;19918;-80
2024/03/06 09:31:59;;;;;;;15.85;8.75;;;;;;;;;;7415579;19;19934;-80
2024/03/06 09:34:48;;;;;;;16.27;8.65;;;;;;;;;;7413335;19;19914;-80
2024/03/06 09:37:33;;;;;;;17.38;8.70;;;;;;;;;;7414568;19;19922;-80
2024/03/06 09:40:24;;;;;;;17.73;8.25;;;;;;;;;;7411967;19;19922;-80
2024/03/06 09:43:12;;;;;;;13.88;7.63;;;;;;;;;;7411290;19;19987;-80
2024/03/06 09:46:01;;;;;;;15.75;8.18;;;;;;;;;;7412471;19;19955;-80
2024/03/06 09:48:49;;;;;;;13.18;7.78;;;;;;;;;;7412503;19;19910;-80
2024/03/06 09:51:41;;;;;;;15.60;7.43;;;;;;;;;;7413057;19;19911;-80
2024/03/06 09:54:29;;;;;;;18.02;8.18;;;;;;;;;;7414295;19;19923;-80
2024/03/06 09:57:16;;;;;;;14.63;7.95;;;;;;;;;;7408923;19;20325;-80
2024/03/06 10:00:06;;;;;;;14.43;7.28;;;;;;;;;;7414862;19;19910;-80
2024/03/06 10:03:00;;;;;;;13.60;8.25;;;;;;;;;;7414944;19;19930;-80
2024/03/06 10:05:48;;;;;;;13.27;7.85;;;;;;;;;;7412147;19;19946;-79
2024/03/06 10:08:34;;;;;;;15.20;8.43;;;;;;;;;;7412941;19;19910;-79
2024/03/06 10:11:20;;;;;;;16.42;8.55;;;;;;;;;;7411159;19;19948;-80
2024/03/06 10:14:05;;;;;;;17.73;9.13;;;;;;;;;;7412065;19;20001;-80
2024/03/06 10:16:56;;;;;;;18.13;8.88;;;;;;;;;;7410530;19;19992;-80
2024/03/06 10:19:45;;;;;;;15.35;8.20;;;;;;;;;;7413441;19;19927;-80
2024/03/06 10:22:30;;;;;;;16.27;8.30;;;;;;;;;;7412322;19;19910;-80
2024/03/06 10:25:17;;;;;;;15.20;8.65;;;;;;;;;;7412966;19;19923;-80
2024/03/06 10:28:09;;;;;;;17.30;9.07;;;;;;;;;;7410977;19;20330;-80
2024/03/06 10:30:54;;;;;;;14.63;8.68;;;;;;;;;;7411727;19;19914;-80
2024/03/06 10:33:41;;;;;;;14.82;8.77;;;;;;;;;;7409194;19;19928;-80
2024/03/06 10:36:29;;;;;;;17.80;9.50;;;;;;;;;;7440767;19;19907;-80
2024/03/06 10:39:18;;;;;;;17.55;8.88;;;;;;;;;;7444083;19;19914;-80
2024/03/06 10:42:06;;;;;;;15.90;8.65;;;;;;;;;;7441808;19;19911;-80
2024/03/06 10:44:55;;;;;;;18.33;9.25;;;;;;;;;;7406522;19;19942;-80
2024/03/06 10:47:42;;;;;;;15.63;8.45;;;;;;;;;;7407840;19;19911;-80
2024/03/06 10:50:27;;;;;;;13.60;8.70;;;;;;;;;;7409562;19;19937;-80
2024/03/06 10:53:13;;;;;;;14.75;8.07;;;;;;;;;;7409211;19;20319;-80
2024/03/06 10:56:01;;;;;;;16.00;8.63;;;;;;;;;;7406196;19;19922;-80
2024/03/06 10:58:52;;;;;;;17.10;8.80;;;;;;;;;;7407879;19;19918;-79
2024/03/06 11:01:40;;;;;;;20.20;9.80;;;;;;;;;;7407428;19;19917;-80
2024/03/06 11:04:28;;;;;;;18.63;8.95;;;;;;;;;;7405917;19;19925;-80
2024/03/06 11:07:13;;;;;;;16.92;8.65;;;;;;;;;;7405527;19;20347;-80
2024/03/06 11:10:02;;;;;;;18.08;9.10;;;;;;;;;;7405063;19;19923;-79
2024/03/06 11:12:50;;;;;;;20.52;9.27;;;;;;;;;;7432512;19;19956;-79
2024/03/06 11:15:37;;;;;;;16.10;8.40;;;;;;;;;;7425865;19;19922;-80
2024/03/06 11:18:46;;;;;;;14.07;7.80;;;;;;;;;;7414836;19;19915;-80
2024/03/06 11:21:34;;;;;;;14.20;8.20;;;;;;;;;;7414020;19;19923;-80
2024/03/06 11:24:23;;;;;;;14.45;8.38;;;;;;;;;;7418305;19;19946;-80
2024/03/06 11:27:11;;;;;;;19.27;8.93;;;;;;;;;;7419172;19;19917;-80
2024/03/06 11:30:10;;;;;;;15.80;8.43;;;;;;;;;;7417563;19;19927;-79
2024/03/06 11:33:04;;;;;;;15.48;8.20;;;;;;;;;;7420854;19;19918;-80
2024/03/06 11:36:20;;;;;;;14.70;8.35;;;;;;;;;;7421020;19;19922;-80
2024/03/06 11:39:08;;;;;;;16.35;8.38;;;;;;;;;;7421123;19;19927;-80
2024/03/06 11:41:53;;;;;;;16.20;8.32;;;;;;;;;;7421564;19;19907;-80
2024/03/06 11:44:38;;;;;;;18.15;8.95;;;;;;;;;;7418175;19;19944;-80
2024/03/06 11:47:23;;;;;;;16.25;9.00;;;;;;;;;;7418379;19;19922;-80
2024/03/06 11:50:13;;;;;;;17.63;9.27;;;;;;;;;;7420392;19;19922;-80
2024/03/06 11:53:06;;;;;;;13.68;7.60;;;;;;;;;;7419616;19;19933;-80
2024/03/06 11:55:50;;;;;;;15.75;8.63;;;;;;;;;;7416461;19;20005;-80
2024/03/06 11:58:37;;;;;;;13.43;7.38;;;;;;;;;;7416846;19;20352;-80
2024/03/06 12:01:27;;;;;;;15.10;7.97;;;;;;;;;;7416354;19;19917;-81
2024/03/06 12:04:12;;;;;;;15.52;6.97;;;;;;;;;;7414102;19;19919;-80
2024/03/06 12:07:04;;;;;;;11.55;6.78;;;;;;;;;;7419392;19;20261;-80
2024/03/06 12:09:49;;;;;;;15.48;7.22;;;;;;;;;;7419285;19;19926;-80
2024/03/06 12:12:36;;;;;;;12.27;6.15;;;;;;;;;;7419717;19;19929;-80
2024/03/06 12:15:20;;;;;;;13.80;7.47;;;;;;;;;;7418007;19;19923;-80
2024/03/06 12:18:05;;;;;;;13.50;6.53;;;;;;;;;;7418335;19;19921;-80
2024/03/06 12:20:52;;;;;;;15.30;7.00;;;;;;;;;;7418567;19;19977;-80
2024/03/06 12:23:41;;;;;;;12.40;6.50;;;;;;;;;;7419466;19;19950;-80
2024/03/06 12:26:26;;;;;;;12.70;6.60;;;;;;;;;;7416207;19;20377;-80
2024/03/06 12:29:14;;;;;;;11.68;6.25;;;;;;;;;;7420016;19;19918;-80
2024/03/06 12:31:59;;;;;;;12.73;6.28;;;;;;;;;;7420272;19;20316;-80
2024/03/06 12:34:43;;;;;;;15.15;6.85;;;;;;;;;;7419897;19;19929;-80
2024/03/06 12:37:33;;;;;;;14.30;6.47;;;;;;;;;;7417303;19;19914;-80
2024/03/06 12:40:21;;;;;;;13.45;6.40;;;;;;;;;;7419126;19;19976;-80
2024/03/06 12:43:08;;;;;;;15.40;6.90;;;;;;;;;;7418846;19;19978;-81
2024/03/06 12:45:59;;;;;;;12.48;6.45;;;;;;;;;;7418421;19;19919;-80
2024/03/06 12:48:48;;;;;;;15.02;6.82;;;;;;;;;;7420027;19;19919;-82
2024/03/06 12:51:37;;;;;;;11.73;6.47;;;;;;;;;;7419415;19;19921;-82
2024/03/06 12:54:22;;;;;;;12.45;6.65;;;;;;;;;;7418973;19;19937;-83
2024/03/06 12:57:09;;;;;;;13.50;6.57;;;;;;;;;;7418171;19;19918;-81
2024/03/06 12:59:58;;;;;;;13.02;6.28;;;;;;;;;;7419611;19;19922;-82
2024/03/06 13:02:44;;;;;;;13.35;7.03;;;;;;;;;;7418951;19;19927;-82
2024/03/06 13:05:34;;;;;;;12.55;6.47;;;;;;;;;;7414905;19;19918;-81
2024/03/06 13:08:21;;;;;;;14.20;6.70;;;;;;;;;;7418480;19;19955;-82
2024/03/06 13:11:06;;;;;;;16.17;7.00;;;;;;;;;;7417098;19;19931;-82
2024/03/06 13:13:53;;;;;;;15.25;6.95;;;;;;;;;;7419776;19;19918;-82
2024/03/06 13:16:37;;;;;;;16.13;7.20;;;;;;;;;;7416759;19;19910;-82
2024/03/06 13:19:24;;;;;;;15.35;6.47;;;;;;;;;;7418214;19;19934;-82
2024/03/06 13:22:13;;;;;;;14.82;6.80;;;;;;;;;;7418922;19;19952;-82
2024/03/06 13:24:59;;;;;;;13.93;6.93;;;;;;;;;;7419155;19;19915;-82
2024/03/06 13:27:49;;;;;;;15.57;6.95;;;;;;;;;;7438500;19;19958;-80
2024/03/06 13:30:40;;;;;;;16.40;8.05;;;;;;;;;;7431470;19;19955;-81
2024/03/06 13:33:26;;;;;;;16.17;8.07;;;;;;;;;;7421229;19;19934;-82
2024/03/06 13:36:11;;;;;;;13.52;7.40;;;;;;;;;;7419263;19;19922;-81
2024/03/06 13:39:01;;;;;;;13.85;6.80;;;;;;;;;;7418141;19;19918;-82
2024/03/06 13:41:50;;;;;;;13.70;7.65;;;;;;;;;;7416902;19;19922;-82
2024/03/06 13:44:37;;;;;;;13.77;7.03;;;;;;;;;;7418370;19;19938;-82
2024/03/06 13:47:26;;;;;;;14.60;7.00;;;;;;;;;;7413123;19;19931;-82
2024/03/06 13:50:14;;;;;;;14.63;7.47;;;;;;;;;;7417705;19;20253;-82
2024/03/06 13:53:01;;;;;;;16.38;7.25;;;;;;;;;;7419600;19;19907;-81
2024/03/06 13:55:48;;;;;;;17.45;8.02;;;;;;;;;;7417453;19;19950;-83
2024/03/06 13:58:32;;;;;;;15.35;7.95;;;;;;;;;;7413957;19;19914;-82
2024/03/06 14:01:19;;;;;;;16.98;8.45;;;;;;;;;;7412938;19;20258;-82
2024/03/06 14:04:11;;;;;;;17.52;8.90;;;;;;;;;;7412071;19;19945;-82
2024/03/06 14:06:56;;;;;;;19.05;9.30;;;;;;;;;;7413216;19;19922;-82
2024/03/06 14:09:46;;;;;;;18.40;8.90;;;;;;;;;;7415526;19;19915;-82
2024/03/06 14:12:30;;;;;;;16.95;8.45;;;;;;;;;;7413030;19;19970;-82
2024/03/06 14:15:18;;;;;;;20.40;8.95;;;;;;;;;;7415972;19;20365;-82
2024/03/06 14:18:04;;;;;;;17.08;8.93;;;;;;;;;;7416112;19;19990;-82
2024/03/06 14:20:51;;;;;;;18.30;9.07;;;;;;;;;;7416707;19;19926;-82
2024/03/06 14:23:35;;;;;;;20.98;9.88;;;;;;;;;;7416775;19;19917;-82
2024/03/06 14:26:19;;;;;;;17.52;8.77;;;;;;;;;;7418158;19;19949;-82
2024/03/06 14:29:07;;;;;;;19.50;9.25;;;;;;;;;;7425340;19;19939;-82
2024/03/06 14:31:55;;;;;;;17.05;8.45;;;;;;;;;;7444917;19;19940;-82
2024/03/06 14:34:43;;;;;;;15.32;7.10;;;;;;;;;;7441644;19;19965;-82
2024/03/06 14:37:30;;;;;;;15.10;7.40;;;;;;;;;;7443286;19;19914;-81
2024/03/06 14:40:17;;;;;;;14.68;7.57;;;;;;;;;;7444534;19;19915;-81
2024/03/06 14:43:08;;;;;;;12.63;6.88;;;;;;;;;;7444404;19;19927;-81
2024/03/06 14:45:55;;;;;;;13.73;6.43;;;;;;;;;;7430675;19;20353;-83
2024/03/06 14:48:44;;;;;;;15.95;7.45;;;;;;;;;;7417124;19;19923;-82
2024/03/06 14:51:29;;;;;;;14.93;6.78;;;;;;;;;;7415440;19;19915;-82
2024/03/06 14:54:18;;;;;;;17.63;8.32;;;;;;;;;;7415764;19;19915;-82
2024/03/06 14:57:03;;;;;;;17.23;7.85;;;;;;;;;;7413999;19;19926;-82
2024/03/06 14:59:47;;;;;;;19.05;8.45;;;;;;;;;;7424039;19;19914;-82
2024/03/06 15:02:32;;;;;;;15.82;7.82;;;;;;;;;;7422743;19;19933;-82
2024/03/06 15:05:19;;;;;;;15.57;7.85;;;;;;;;;;7419473;19;20252;-82
2024/03/06 15:08:07;;;;;;;19.15;7.93;;;;;;;;;;7420165;19;20274;-82
2024/03/06 15:10:57;;;;;;;15.48;7.85;;;;;;;;;;7421338;19;19927;-82
2024/03/06 15:13:43;;;;;;;18.15;7.97;;;;;;;;;;7421860;19;19945;-82
2024/03/06 15:16:27;;;;;;;13.18;7.38;;;;;;;;;;7429218;19;20003;-82
2024/03/06 15:19:11;;;;;;;14.93;7.43;;;;;;;;;;7433876;19;21123;-82
2024/03/06 15:21:59;;;;;;;16.95;7.55;;;;;;;;;;7434184;19;19915;-81
2024/03/06 15:24:44;;;;;;;16.48;8.35;;;;;;;;;;7439030;19;19911;-81
2024/03/06 15:27:31;;;;;;;15.93;7.20;;;;;;;;;;7439444;19;19917;-81
2024/03/06 15:30:16;;;;;;;17.60;7.90;;;;;;;;;;7441950;19;19911;-81
2024/03/06 15:33:02;;;;;;;15.55;7.20;;;;;;;;;;7441842;19;19935;-81
2024/03/06 15:35:47;;;;;;;16.80;7.53;;;;;;;;;;7440235;19;19934;-81
2024/03/06 15:38:36;;;;;;;16.30;7.57;;;;;;;;;;7428318;19;19914;-82
2024/03/06 15:41:22;;;;;;;17.92;7.70;;;;;;;;;;7439468;19;19918;-81
2024/03/06 15:44:11;;;;;;;15.32;7.55;;;;;;;;;;7442804;19;19913;-83
2024/03/06 15:46:58;;;;;;;19.08;7.72;;;;;;;;;;7421379;19;19922;-81
2024/03/06 15:49:44;;;;;;;15.45;7.90;;;;;;;;;;7420750;19;19925;-81
2024/03/06 15:52:31;;;;;;;15.07;8.23;;;;;;;;;;7421628;19;20338;-81
2024/03/06 15:55:15;;;;;;;15.50;7.95;;;;;;;;;;7420388;19;20253;-81
2024/03/06 15:58:02;;;;;;;18.25;8.43;;;;;;;;;;7418929;19;19931;-80
2024/03/06 16:00:49;;;;;;;15.95;8.23;;;;;;;;;;7421284;19;19917;-81
2024/03/06 16:03:33;;;;;;;18.02;8.70;;;;;;;;;;7420984;19;19941;-81
2024/03/06 16:06:17;;;;;;;15.43;8.20;;;;;;;;;;7417767;19;20258;-80
2024/03/06 16:09:05;;;;;;;17.13;8.32;;;;;;;;;;7412273;19;19915;-80
2024/03/06 16:11:49;;;;;;;19.58;7.85;;;;;;;;;;7417146;19;19934;-80
2024/03/06 16:14:35;;;;;;;16.73;8.02;;;;;;;;;;7417136;19;20002;-80
2024/03/06 16:17:24;;;;;;;17.73;8.15;;;;;;;;;;7416157;19;19927;-80
2024/03/06 16:20:11;;;;;;;16.30;7.68;;;;;;;;;;7414905;19;19911;-80
2024/03/06 16:22:56;;;;;;;16.98;8.23;;;;;;;;;;7417504;19;19971;-80
2024/03/06 16:25:43;;;;;;;15.35;8.18;;;;;;;;;;7417298;19;19918;-80
2024/03/06 16:28:32;;;;;;;16.27;8.15;;;;;;;;;;7419953;19;19917;-80